createdAt,value
2023-04-18T00:00:13.740Z,97276.81
2023-04-18T00:02:40.931Z,97274.53
2023-04-18T00:05:08.106Z,97275.53
2023-04-18T00:07:37.463Z,97270.19
2023-04-18T00:10:07.570Z,97273.63
2023-04-18T00:12:34.440Z,97269.47
2023-04-18T00:15:02.411Z,97268.25
2023-04-18T00:17:29.055Z,97268.41
2023-04-18T00:19:58.444Z,97270.47
2023-04-18T00:22:25.588Z,97262.34
2023-04-18T00:24:52.687Z,97262.22
2023-04-18T00:27:19.821Z,97262.13
2023-04-18T00:29:47.242Z,97262.22
2023-04-18T00:32:14.663Z,97262.09
2023-04-18T00:34:41.339Z,97264.50
2023-04-18T00:37:08.320Z,97265.09
2023-04-18T00:39:35.790Z,97263.97
2023-04-18T00:42:03.813Z,97252.91
2023-04-18T00:44:31.352Z,97254.91
2023-04-18T00:46:58.204Z,97253.75
2023-04-18T00:49:25.892Z,97254.81
2023-04-18T00:51:54.538Z,97250.53
2023-04-18T00:54:22.010Z,97254.47
2023-04-18T00:56:51.462Z,97253.75
2023-04-18T00:59:18.637Z,97250.38
2023-04-18T01:01:45.383Z,97251.16
2023-04-18T01:04:12.423Z,97256.84
2023-04-18T01:06:39.533Z,97257.66
2023-04-18T01:09:06.697Z,97257.44
2023-04-18T01:11:33.319Z,97255.84
2023-04-18T01:14:07.391Z,97248.94
2023-04-18T01:16:34.264Z,97252.47
2023-04-18T01:19:02.126Z,97244.75
2023-04-18T01:21:33.987Z,97256.91
2023-04-18T01:24:08.154Z,97247.22
2023-04-18T01:26:34.807Z,97254.69
2023-04-18T01:29:03.599Z,97254.25
2023-04-18T01:31:30.228Z,97242.88
2023-04-18T01:33:56.922Z,97251.59
2023-04-18T01:36:23.542Z,97248.97
2023-04-18T01:38:50.430Z,97241.19
2023-04-18T01:41:17.126Z,97244.28
2023-04-18T01:43:43.815Z,97245.31
2023-04-18T01:46:10.481Z,97249.25
2023-04-18T01:48:37.122Z,97249.31
2023-04-18T01:51:04.284Z,97255.19
2023-04-18T01:53:31.114Z,97253.03
2023-04-18T01:55:58.557Z,97250.13
2023-04-18T01:58:25.404Z,97252.06
2023-04-18T02:00:53.171Z,97258.97
2023-04-18T02:03:20.104Z,97259.31
2023-04-18T02:05:47.248Z,97253.44
2023-04-18T02:08:14.424Z,97254.66
2023-04-18T02:10:41.905Z,97256.25
2023-04-18T02:13:08.781Z,97259.25
2023-04-18T02:15:35.598Z,97266.66
2023-04-18T02:18:03.113Z,97261.44
2023-04-18T02:20:33.698Z,97264.97
2023-04-18T02:23:01.200Z,97264.69
2023-04-18T02:25:28.943Z,97261.94
2023-04-18T02:27:56.926Z,97266.22
2023-04-18T02:30:24.729Z,97262.41
2023-04-18T02:32:53.211Z,97259.00
2023-04-18T02:35:23.190Z,97266.31
2023-04-18T02:37:50.114Z,97259.28
2023-04-18T02:40:16.769Z,97266.41
2023-04-18T02:42:43.355Z,97268.72
2023-04-18T02:45:10.436Z,97267.31
2023-04-18T02:47:51.248Z,97268.28
2023-04-18T02:50:21.596Z,97267.31
2023-04-18T02:52:48.250Z,97269.34
2023-04-18T02:55:15.344Z,97264.31
2023-04-18T02:57:41.985Z,97268.09
2023-04-18T03:00:09.351Z,97274.94
2023-04-18T03:02:36.190Z,97270.84
2023-04-18T03:05:07.246Z,97266.56
2023-04-18T03:07:34.050Z,97269.31
2023-04-18T03:10:00.659Z,97268.50
2023-04-18T03:12:27.384Z,97267.88
2023-04-18T03:14:54.055Z,97272.38
2023-04-18T03:17:20.780Z,97271.31
2023-04-18T03:19:47.550Z,97280.38
2023-04-18T03:22:15.326Z,97275.72
2023-04-18T03:24:41.961Z,97275.22
2023-04-18T03:27:08.618Z,97284.00
2023-04-18T03:29:35.299Z,97287.88
2023-04-18T03:32:01.966Z,97287.78
2023-04-18T03:34:29.091Z,97286.47
2023-04-18T03:36:55.660Z,97289.69
2023-04-18T03:39:22.304Z,97287.91
2023-04-18T03:41:49.860Z,97288.75
2023-04-18T03:44:16.745Z,97288.59
2023-04-18T03:46:43.833Z,97288.59
2023-04-18T03:49:10.493Z,97299.06
2023-04-18T03:51:43.891Z,97295.63
2023-04-18T03:54:10.636Z,97300.44
2023-04-18T03:56:37.391Z,97307.34
2023-04-18T03:59:04.029Z,97296.47
2023-04-18T04:01:30.835Z,97303.44
2023-04-18T04:03:57.598Z,97303.56
2023-04-18T04:06:24.508Z,97305.22
2023-04-18T04:08:51.160Z,97305.81
2023-04-18T04:11:17.790Z,97301.69
2023-04-18T04:13:44.423Z,97303.56
2023-04-18T04:16:11.289Z,97310.59
2023-04-18T04:18:40.060Z,97314.06
2023-04-18T04:21:06.865Z,97315.03
2023-04-18T04:23:34.303Z,97320.22
2023-04-18T04:26:04.680Z,97312.00
2023-04-18T04:28:31.729Z,97319.66
2023-04-18T04:30:58.396Z,97317.88
2023-04-18T04:33:28.701Z,97316.97
2023-04-18T04:35:56.547Z,97326.34
2023-04-18T04:38:23.139Z,97335.84
2023-04-18T04:40:51.448Z,97330.41
2023-04-18T04:43:20.513Z,97331.25
2023-04-18T04:45:53.406Z,97335.31
2023-04-18T04:48:22.174Z,97328.47
2023-04-18T04:50:54.134Z,97339.78
2023-04-18T04:53:21.310Z,97342.84
2023-04-18T04:55:48.560Z,97335.38
2023-04-18T04:58:15.486Z,97339.44
2023-04-18T05:00:42.132Z,97345.22
2023-04-18T05:03:10.947Z,97343.44
2023-04-18T05:05:37.851Z,97346.28
2023-04-18T05:08:04.697Z,97345.13
2023-04-18T05:10:31.422Z,97335.69
2023-04-18T05:12:58.121Z,97344.38
2023-04-18T05:15:25.091Z,97341.94
2023-04-18T05:17:51.795Z,97343.16
2023-04-18T05:20:18.435Z,97345.59
2023-04-18T05:22:45.112Z,97355.03
2023-04-18T05:25:12.607Z,97349.34
2023-04-18T05:27:39.810Z,97350.06
2023-04-18T05:30:07.184Z,97349.63
2023-04-18T05:32:33.805Z,97360.22
2023-04-18T05:35:00.604Z,97360.63
2023-04-18T05:37:27.285Z,97353.84
2023-04-18T05:39:53.899Z,97359.56
2023-04-18T05:42:20.502Z,97357.19
2023-04-18T05:44:47.179Z,97361.78
2023-04-18T05:47:13.764Z,97364.56
2023-04-18T05:49:40.556Z,97360.56
2023-04-18T05:52:07.157Z,97360.56
2023-04-18T05:54:33.761Z,97362.84
2023-04-18T05:57:01.748Z,97356.47
2023-04-18T05:59:29.961Z,97363.34
2023-04-18T06:01:56.809Z,97363.19
2023-04-18T06:04:23.577Z,97366.41
2023-04-18T06:06:53.248Z,97366.22
2023-04-18T06:09:19.898Z,97376.47
2023-04-18T06:11:46.952Z,97374.03
2023-04-18T06:14:13.936Z,97366.31
2023-04-18T06:16:40.693Z,97367.38
2023-04-18T06:19:07.442Z,97371.44
2023-04-18T06:21:34.158Z,97369.38
2023-04-18T06:24:01.697Z,97381.53
2023-04-18T06:26:32.099Z,97382.22
2023-04-18T06:28:58.839Z,97377.28
2023-04-18T06:31:25.630Z,97375.34
2023-04-18T06:33:52.468Z,97373.34
2023-04-18T06:36:19.418Z,97377.13
2023-04-18T06:38:48.563Z,97374.06
2023-04-18T06:41:15.785Z,97377.78
2023-04-18T06:43:52.048Z,97374.63
2023-04-18T06:46:26.953Z,97378.28
2023-04-18T06:48:55.755Z,97378.28
2023-04-18T06:51:23.873Z,97381.28
2023-04-18T06:53:55.517Z,97372.91
2023-04-18T06:56:22.224Z,97374.56
2023-04-18T06:58:49.751Z,97374.19
2023-04-18T07:01:16.671Z,97381.94
2023-04-18T07:03:43.548Z,97372.59
2023-04-18T07:06:11.137Z,97374.31
2023-04-18T07:08:38.143Z,97374.13
2023-04-18T07:11:06.470Z,97374.22
2023-04-18T07:13:33.279Z,97374.63
2023-04-18T07:16:00.695Z,97366.69
2023-04-18T07:18:37.419Z,97371.50
2023-04-18T07:21:07.761Z,97368.78
2023-04-18T07:23:35.162Z,97369.78
2023-04-18T07:26:02.979Z,97371.56
2023-04-18T07:28:31.426Z,97366.38
2023-04-18T07:30:58.638Z,97370.22
2023-04-18T07:33:25.473Z,97374.72
2023-04-18T07:35:53.289Z,97367.03
2023-04-18T07:38:20.145Z,97364.44
2023-04-18T07:40:46.811Z,97365.38
2023-04-18T07:43:13.424Z,97367.19
2023-04-18T07:45:43.189Z,97364.50
2023-04-18T07:48:10.021Z,97358.25
2023-04-18T07:50:36.651Z,97358.50
2023-04-18T07:53:03.617Z,97360.34
2023-04-18T07:55:30.827Z,97365.97
2023-04-18T07:58:00.025Z,97361.56
2023-04-18T08:00:34.221Z,97365.75
2023-04-18T08:03:01.048Z,97363.75
2023-04-18T08:05:32.700Z,97358.88
2023-04-18T08:07:59.398Z,97366.75
2023-04-18T08:10:28.703Z,97362.13
2023-04-18T08:12:55.368Z,97369.22
2023-04-18T08:15:24.510Z,97363.25
2023-04-18T08:17:51.930Z,97360.69
2023-04-18T08:20:18.687Z,97361.25
2023-04-18T08:23:02.272Z,97360.06
2023-04-18T08:25:32.471Z,97357.84
2023-04-18T08:27:59.219Z,97367.78
2023-04-18T08:30:26.038Z,97361.44
2023-04-18T08:32:52.736Z,97363.03
2023-04-18T08:35:19.691Z,97364.22
2023-04-18T08:37:46.374Z,97370.19
2023-04-18T08:40:15.366Z,97366.50
2023-04-18T08:42:44.407Z,97370.69
2023-04-18T08:45:14.247Z,97354.28
2023-04-18T08:47:41.986Z,97357.13
2023-04-18T08:50:09.902Z,97361.31
2023-04-18T08:52:39.431Z,97352.53
2023-04-18T08:55:06.876Z,97343.84
2023-04-18T08:57:35.704Z,97347.25
2023-04-18T09:00:02.425Z,97344.75
2023-04-18T09:02:42.937Z,97340.38
2023-04-18T09:05:18.958Z,97337.13
2023-04-18T09:07:47.069Z,97337.78
2023-04-18T09:10:24.438Z,97336.47
2023-04-18T09:12:52.365Z,97340.28
2023-04-18T09:15:23.261Z,97335.84
2023-04-18T09:17:56.257Z,97334.16
2023-04-18T09:20:36.006Z,97343.88
2023-04-18T09:23:03.972Z,97338.06
2023-04-18T09:25:34.972Z,97340.19
2023-04-18T09:28:02.256Z,97334.88
2023-04-18T09:30:32.058Z,97335.09
2023-04-18T09:33:00.506Z,97328.81
2023-04-18T09:35:27.722Z,97333.00
2023-04-18T09:37:54.516Z,97326.78
2023-04-18T09:40:21.897Z,97330.56
2023-04-18T09:42:48.811Z,97333.53
2023-04-18T09:45:16.242Z,97324.38
2023-04-18T09:47:42.884Z,97325.53
2023-04-18T09:50:10.703Z,97320.22
2023-04-18T09:52:39.250Z,97322.13
2023-04-18T09:55:08.948Z,97321.91
2023-04-18T09:57:40.691Z,97316.94
2023-04-18T10:00:17.356Z,97308.97
2023-04-18T10:02:58.655Z,97315.22
2023-04-18T10:05:28.578Z,97317.31
2023-04-18T10:07:56.043Z,97310.16
2023-04-18T10:10:23.372Z,97303.00
2023-04-18T10:12:53.313Z,97310.88
2023-04-18T10:15:22.417Z,97310.31
2023-04-18T10:18:04.164Z,97311.19
2023-04-18T10:20:35.076Z,97311.09
2023-04-18T10:23:40.647Z,97311.31
2023-04-18T10:26:09.399Z,97318.34
2023-04-18T10:28:54.777Z,97314.06
2023-04-18T10:31:23.745Z,97313.75
2023-04-18T10:34:04.701Z,97311.50
2023-04-18T10:36:32.537Z,97307.69
2023-04-18T10:39:21.223Z,97302.16
2023-04-18T10:41:51.821Z,97310.53
2023-04-18T10:44:20.143Z,97306.63
2023-04-18T10:46:52.959Z,97303.84
2023-04-18T10:49:21.344Z,97300.94
2023-04-18T10:51:50.533Z,97298.69
2023-04-18T10:54:38.992Z,97298.47
2023-04-18T10:57:08.687Z,97297.09
2023-04-18T10:59:39.946Z,97296.31
2023-04-18T11:02:25.145Z,97295.34
2023-04-18T11:04:53.592Z,97284.50
2023-04-18T11:07:31.981Z,97286.50
2023-04-18T11:09:58.618Z,97293.97
2023-04-18T11:12:28.961Z,97291.19
2023-04-18T11:14:55.758Z,97284.81
2023-04-18T11:17:27.645Z,97282.53
2023-04-18T11:20:09.233Z,97279.53
2023-04-18T11:22:59.124Z,97279.84
2023-04-18T11:25:29.761Z,97281.13
2023-04-18T11:27:59.954Z,97277.63
2023-04-18T11:30:26.863Z,97278.78
2023-04-18T11:32:54.375Z,97274.03
2023-04-18T11:35:21.211Z,97271.75
2023-04-18T11:37:50.095Z,97264.00
2023-04-18T11:40:16.873Z,97267.97
2023-04-18T11:42:43.641Z,97261.09
2023-04-18T11:45:14.168Z,97264.16
2023-04-18T11:47:43.266Z,97265.22
2023-04-18T11:50:12.059Z,97260.19
2023-04-18T11:52:41.116Z,97254.25
2023-04-18T11:55:15.258Z,97253.72
2023-04-18T11:57:42.086Z,97256.31
2023-04-18T12:00:12.310Z,97251.38
2023-04-18T12:02:43.746Z,97253.56
2023-04-18T12:05:12.165Z,97251.22
2023-04-18T12:07:41.246Z,97245.50
2023-04-18T12:10:10.182Z,97247.25
2023-04-18T12:12:37.057Z,97239.44
2023-04-18T12:15:07.829Z,97237.78
2023-04-18T12:17:36.565Z,97251.06
2023-04-18T12:20:06.435Z,97238.09
2023-04-18T12:22:46.293Z,97228.91
2023-04-18T12:25:27.422Z,97244.44
2023-04-18T12:27:58.003Z,97239.06
2023-04-18T12:30:42.989Z,97235.72
2023-04-18T12:33:09.706Z,97228.03
2023-04-18T12:35:36.858Z,97231.47
2023-04-18T12:38:04.836Z,97236.97
2023-04-18T12:40:31.602Z,97239.03
2023-04-18T12:42:58.249Z,97238.00
2023-04-18T12:45:30.910Z,97230.38
2023-04-18T12:47:57.758Z,97225.66
2023-04-18T12:50:27.497Z,97223.41
2023-04-18T12:53:06.020Z,97220.25
2023-04-18T12:55:33.087Z,97223.44
2023-04-18T12:58:00.036Z,97223.31
2023-04-18T13:00:29.829Z,97215.19
2023-04-18T13:02:57.390Z,97217.97
2023-04-18T13:05:29.187Z,97225.59
2023-04-18T13:08:15.425Z,97219.97
2023-04-18T13:10:43.612Z,97218.97
2023-04-18T13:13:10.481Z,97215.38
2023-04-18T13:15:37.281Z,97218.84
2023-04-18T13:18:06.528Z,97213.44
2023-04-18T13:20:34.472Z,97216.22
2023-04-18T13:23:02.660Z,97226.75
2023-04-18T13:25:29.581Z,97222.50
2023-04-18T13:27:58.569Z,97223.41
2023-04-18T13:30:25.609Z,97229.88
2023-04-18T13:32:52.467Z,97234.34
2023-04-18T13:35:19.189Z,97223.31
2023-04-18T13:37:46.363Z,97239.16
2023-04-18T13:40:16.464Z,97228.84
2023-04-18T13:42:43.195Z,97234.03
2023-04-18T13:45:10.331Z,97229.91
2023-04-18T13:47:37.599Z,97225.31
2023-04-18T13:50:05.525Z,97235.09
2023-04-18T13:52:34.190Z,97237.03
2023-04-18T13:55:01.151Z,97235.44
2023-04-18T13:57:28.531Z,97228.06
2023-04-18T13:59:55.259Z,97232.13
2023-04-18T14:02:22.299Z,97231.06
2023-04-18T14:04:49.307Z,97232.22
2023-04-18T14:07:16.660Z,97240.47
2023-04-18T14:09:43.327Z,97242.59
2023-04-18T14:12:12.232Z,97239.94
2023-04-18T14:14:38.990Z,97233.16
2023-04-18T14:17:06.564Z,97240.38
2023-04-18T14:19:34.820Z,97239.56
2023-04-18T14:22:01.465Z,97227.19
2023-04-18T14:24:28.016Z,97236.75
2023-04-18T14:26:54.956Z,97239.41
2023-04-18T14:29:21.660Z,97238.56
2023-04-18T14:31:48.757Z,97241.28
2023-04-18T14:34:15.529Z,97241.28
2023-04-18T14:36:42.333Z,97240.53
2023-04-18T14:39:09.071Z,97238.00
2023-04-18T14:41:35.846Z,97243.91
2023-04-18T14:44:04.066Z,97245.28
2023-04-18T14:46:30.957Z,97244.88
2023-04-18T14:48:57.794Z,97239.13
2023-04-18T14:51:24.545Z,97236.38
2023-04-18T14:53:51.444Z,97235.63
2023-04-18T14:56:21.131Z,97233.03
2023-04-18T14:58:47.993Z,97232.19
2023-04-18T15:01:14.686Z,97232.81
2023-04-18T15:03:44.116Z,97238.09
2023-04-18T15:06:11.167Z,97236.66
2023-04-18T15:08:37.945Z,97233.09
2023-04-18T15:14:10.108Z,97232.63
2023-04-18T15:16:39.484Z,97220.84
2023-04-18T15:19:06.552Z,97227.97
2023-04-18T15:21:33.088Z,97238.13
2023-04-18T15:24:00.528Z,97222.69
2023-04-18T15:26:27.156Z,97234.38
2023-04-18T15:28:54.371Z,97237.09
2023-04-18T15:31:21.820Z,97225.44
2023-04-18T15:33:48.560Z,97225.75
2023-04-18T15:36:15.423Z,97228.81
2023-04-18T15:38:43.011Z,97220.19
2023-04-18T15:41:09.613Z,97226.91
2023-04-18T15:46:22.398Z,97222.25
2023-04-18T15:48:49.044Z,97222.38
2023-04-18T15:51:18.520Z,97224.25
2023-04-18T15:53:45.200Z,97222.69
2023-04-18T15:56:11.930Z,97226.44
2023-04-18T15:58:43.573Z,97222.75
2023-04-18T16:01:13.267Z,97223.34
2023-04-18T16:03:43.425Z,97221.91
2023-04-18T16:06:23.818Z,97217.81
2023-04-18T16:09:08.670Z,97220.31
2023-04-18T16:11:35.454Z,97219.63
2023-04-18T16:14:03.445Z,97225.50
2023-04-18T16:16:50.793Z,97229.75
2023-04-18T16:19:28.028Z,97229.03
2023-04-18T16:21:54.778Z,97225.91
2023-04-18T16:24:27.451Z,97224.19
2023-04-18T16:27:28.745Z,97230.63
2023-04-18T16:30:03.551Z,97227.59
2023-04-18T16:32:30.337Z,97239.25
2023-04-18T16:34:57.016Z,97235.94
2023-04-18T16:37:33.024Z,97236.41
2023-04-18T16:40:02.766Z,97246.00
2023-04-18T16:42:54.764Z,97239.06
2023-04-18T16:45:21.584Z,97246.53
2023-04-18T16:47:48.624Z,97244.63
2023-04-18T16:50:38.769Z,97244.44
2023-04-18T16:53:05.778Z,97242.66
2023-04-18T16:55:32.433Z,97246.34
2023-04-18T16:57:59.050Z,97241.72
2023-04-18T17:00:25.838Z,97241.31
2023-04-18T17:05:56.452Z,97247.84
2023-04-18T17:08:24.172Z,97245.75
2023-04-18T17:10:53.911Z,97252.75
2023-04-18T17:13:26.780Z,97252.00
2023-04-18T17:15:53.955Z,97256.63
2023-04-18T17:18:20.722Z,97251.69
2023-04-18T17:20:47.454Z,97255.09
2023-04-18T17:23:14.335Z,97254.25
2023-04-18T17:25:41.390Z,97257.84
2023-04-18T17:28:08.039Z,97262.16
2023-04-18T17:30:34.814Z,97260.28
2023-04-18T17:33:01.708Z,97258.56
2023-04-18T17:35:28.491Z,97265.09
2023-04-18T17:37:55.244Z,97263.09
2023-04-18T17:40:22.046Z,97265.75
2023-04-18T17:42:48.779Z,97271.72
2023-04-18T17:45:15.615Z,97269.56
2023-04-18T17:47:42.308Z,97267.09
2023-04-18T17:50:11.587Z,97278.03
2023-04-18T17:52:38.742Z,97276.41
2023-04-18T17:55:06.001Z,97283.88
2023-04-18T17:57:33.674Z,97282.16
2023-04-18T18:00:00.414Z,97281.50
2023-04-18T18:02:31.114Z,97285.84
2023-04-18T18:04:57.808Z,97283.88
2023-04-18T18:07:27.601Z,97280.47
2023-04-18T18:10:02.579Z,97288.66
2023-04-18T18:12:29.572Z,97289.28
2023-04-18T18:14:58.122Z,97287.84
2023-04-18T18:17:25.246Z,97288.34
2023-04-18T18:19:52.004Z,97286.44
2023-04-18T18:22:23.146Z,97288.91
2023-04-18T18:24:49.907Z,97284.91
2023-04-18T18:27:18.855Z,97286.44
2023-04-18T18:29:48.167Z,97288.59
2023-04-18T18:32:14.828Z,97282.88
2023-04-18T18:34:41.576Z,97290.56
2023-04-18T18:37:08.320Z,97289.00
2023-04-18T18:39:37.521Z,97296.22
2023-04-18T18:42:04.135Z,97290.81
2023-04-18T18:44:30.838Z,97290.13
2023-04-18T18:46:59.636Z,97288.94
2023-04-18T18:49:26.769Z,97290.22
2023-04-18T18:51:53.559Z,97286.28
2023-04-18T18:54:22.086Z,97279.31
2023-04-18T18:56:48.795Z,97271.38
2023-04-18T18:59:16.089Z,97279.81
2023-04-18T19:01:43.027Z,97282.78
2023-04-18T19:04:10.080Z,97277.34
2023-04-18T19:06:37.029Z,97278.69
2023-04-18T19:09:05.248Z,97277.34
2023-04-18T19:11:32.021Z,97275.81
2023-04-18T19:13:58.630Z,97278.78
2023-04-18T19:16:25.426Z,97277.16
2023-04-18T19:18:52.466Z,97281.75
2023-04-18T19:21:20.320Z,97280.06
2023-04-18T19:23:47.019Z,97280.13
2023-04-18T19:26:13.704Z,97270.50
2023-04-18T19:28:40.403Z,97270.50
2023-04-18T19:31:07.137Z,97272.38
2023-04-18T19:33:33.939Z,97273.63
2023-04-18T19:36:00.563Z,97283.78
2023-04-18T19:38:27.873Z,97281.41
2023-04-18T19:40:54.496Z,97277.19
2023-04-18T19:43:23.618Z,97277.19
2023-04-18T19:45:50.952Z,97270.38
2023-04-18T19:48:17.632Z,97273.13
2023-04-18T19:50:44.725Z,97276.44
2023-04-18T19:53:11.403Z,97272.84
2023-04-18T19:55:39.055Z,97276.06
2023-04-18T19:58:05.909Z,97275.53
2023-04-18T20:00:34.308Z,97270.75
2023-04-18T20:03:01.204Z,97272.78
2023-04-18T20:05:28.034Z,97270.16
2023-04-18T20:07:56.619Z,97262.63
2023-04-18T20:10:23.371Z,97263.31
2023-04-18T20:12:50.253Z,97261.69
2023-04-18T20:15:17.101Z,97261.59
2023-04-18T20:17:43.731Z,97264.38
2023-04-18T20:20:11.330Z,97263.53
2023-04-18T20:22:40.374Z,97268.91
2023-04-18T20:25:07.396Z,97262.84
2023-04-18T20:27:33.980Z,97267.97
2023-04-18T20:30:00.708Z,97258.50
2023-04-18T20:32:27.341Z,97262.25
2023-04-18T20:34:53.984Z,97262.56
2023-04-18T20:37:20.770Z,97258.97
2023-04-18T20:39:47.715Z,97254.22
2023-04-18T20:42:14.419Z,97254.31
2023-04-18T20:44:43.261Z,97254.38
2023-04-18T20:47:09.936Z,97253.53
2023-04-18T20:49:36.755Z,97257.28
2023-04-18T20:52:03.641Z,97253.94
2023-04-18T20:54:30.504Z,97253.25
2023-04-18T20:56:57.149Z,97252.25
2023-04-18T20:59:24.075Z,97253.50
2023-04-18T21:01:50.929Z,97256.19
2023-04-18T21:04:18.046Z,97252.88
2023-04-18T21:06:44.835Z,97247.59
2023-04-18T21:09:11.423Z,97252.97
2023-04-18T21:11:38.173Z,97250.47
2023-04-18T21:14:06.887Z,97249.63
2023-04-18T21:16:33.999Z,97251.56
2023-04-18T21:19:00.807Z,97249.69
2023-04-18T21:21:27.511Z,97246.78
2023-04-18T21:23:54.191Z,97237.41
2023-04-18T21:26:21.042Z,97247.88
2023-04-18T21:29:06.980Z,97243.13
2023-04-18T21:31:35.110Z,97240.88
2023-04-18T21:34:04.279Z,97237.09
2023-04-18T21:36:32.086Z,97229.22
2023-04-18T21:39:00.858Z,97233.72
2023-04-18T21:41:27.922Z,97237.09
2023-04-18T21:43:54.584Z,97239.88
2023-04-18T21:46:21.429Z,97233.03
2023-04-18T21:48:48.535Z,97235.22
2023-04-18T21:51:17.001Z,97231.78
2023-04-18T21:53:43.724Z,97230.94
2023-04-18T21:56:11.014Z,97230.16
2023-04-18T21:58:37.697Z,97226.28
2023-04-18T22:01:04.429Z,97226.19
2023-04-18T22:03:31.826Z,97221.19
2023-04-18T22:05:58.994Z,97215.91
2023-04-18T22:08:26.290Z,97217.72
2023-04-18T22:10:58.292Z,97217.56
2023-04-18T22:13:30.133Z,97219.97
2023-04-18T22:15:58.377Z,97223.53
2023-04-18T22:18:25.381Z,97214.69
2023-04-18T22:20:53.796Z,97222.13
2023-04-18T22:23:20.817Z,97218.03
2023-04-18T22:25:47.843Z,97218.03
2023-04-18T22:28:14.549Z,97223.25
2023-04-18T22:30:41.186Z,97220.75
2023-04-18T22:33:07.837Z,97212.13
2023-04-18T22:35:34.534Z,97215.72
2023-04-18T22:38:01.200Z,97211.13
2023-04-18T22:40:27.802Z,97208.50
2023-04-18T22:42:54.460Z,97203.94
2023-04-18T22:45:21.250Z,97202.72
2023-04-18T22:47:47.972Z,97197.53
2023-04-18T22:50:15.037Z,97196.06
2023-04-18T22:52:41.900Z,97194.41
2023-04-18T22:55:09.324Z,97193.88
2023-04-18T22:57:38.588Z,97187.66
2023-04-18T23:00:06.636Z,97187.44
2023-04-18T23:02:33.383Z,97188.44
2023-04-18T23:05:02.504Z,97184.75
2023-04-18T23:07:29.282Z,97189.50
2023-04-18T23:09:56.145Z,97182.53
2023-04-18T23:12:22.871Z,97180.56
2023-04-18T23:14:49.505Z,97177.25
2023-04-18T23:17:16.175Z,97179.38
2023-04-18T23:19:45.059Z,97174.75
2023-04-18T23:22:11.866Z,97173.38
2023-04-18T23:24:38.886Z,97176.94
2023-04-18T23:27:05.915Z,97174.31
2023-04-18T23:29:37.059Z,97165.47
2023-04-18T23:32:03.978Z,97167.31
2023-04-18T23:34:30.660Z,97167.63
2023-04-18T23:36:57.309Z,97167.06
2023-04-18T23:39:25.877Z,97157.28
2023-04-18T23:41:52.503Z,97162.19
2023-04-18T23:44:19.163Z,97157.78
2023-04-18T23:46:46.035Z,97156.28
2023-04-18T23:49:12.708Z,97154.44
2023-04-18T23:51:39.308Z,97156.28
2023-04-18T23:54:06.201Z,97155.66
2023-04-18T23:56:32.838Z,97153.25
2023-04-18T23:58:59.521Z,97154.19
